sensor_id;sensor_type;location;lat;lon;timestamp;P1;durP1;ratioP1;P2;durP2;ratioP2
739;SDS011;354;42.694;23.336;2022-12-07T00:00:45;33.43;;;23.70;;
739;SDS011;354;42.694;23.336;2022-12-07T00:03:10;34.93;;;24.23;;
739;SDS011;354;42.694;23.336;2022-12-07T00:05:36;33.57;;;23.20;;
739;SDS011;354;42.694;23.336;2022-12-07T00:08:01;33.27;;;22.83;;
739;SDS011;354;42.694;23.336;2022-12-07T00:10:26;29.87;;;22.33;;
739;SDS011;354;42.694;23.336;2022-12-07T00:12:51;34.60;;;22.80;;
739;SDS011;354;42.694;23.336;2022-12-07T00:15:17;33.07;;;23.10;;
739;SDS011;354;42.694;23.336;2022-12-07T00:17:42;32.87;;;22.43;;
739;SDS011;354;42.694;23.336;2022-12-07T00:20:07;37.63;;;25.27;;
739;SDS011;354;42.694;23.336;2022-12-07T00:22:32;35.03;;;22.73;;
739;SDS011;354;42.694;23.336;2022-12-07T00:24:58;33.73;;;22.70;;
739;SDS011;354;42.694;23.336;2022-12-07T00:27:23;36.87;;;24.47;;
739;SDS011;354;42.694;23.336;2022-12-07T00:29:48;31.10;;;22.67;;
739;SDS011;354;42.694;23.336;2022-12-07T00:32:13;32.73;;;21.40;;
739;SDS011;354;42.694;23.336;2022-12-07T00:34:39;31.60;;;20.37;;
739;SDS011;354;42.694;23.336;2022-12-07T00:37:04;32.67;;;21.00;;
739;SDS011;354;42.694;23.336;2022-12-07T00:39:29;31.27;;;21.63;;
739;SDS011;354;42.694;23.336;2022-12-07T00:41:54;30.23;;;21.87;;
739;SDS011;354;42.694;23.336;2022-12-07T00:44:20;29.03;;;20.33;;
739;SDS011;354;42.694;23.336;2022-12-07T00:46:45;34.53;;;21.97;;
739;SDS011;354;42.694;23.336;2022-12-07T00:49:10;31.27;;;21.30;;
739;SDS011;354;42.694;23.336;2022-12-07T00:51:36;29.83;;;22.20;;
739;SDS011;354;42.694;23.336;2022-12-07T00:54:01;33.37;;;21.93;;
739;SDS011;354;42.694;23.336;2022-12-07T00:56:27;26.67;;;19.90;;
739;SDS011;354;42.694;23.336;2022-12-07T01:01:17;31.87;;;21.50;;
739;SDS011;354;42.694;23.336;2022-12-07T01:03:43;28.37;;;20.70;;
739;SDS011;354;42.694;23.336;2022-12-07T01:06:08;27.07;;;20.60;;
739;SDS011;354;42.694;23.336;2022-12-07T01:08:33;30.77;;;21.50;;
739;SDS011;354;42.694;23.336;2022-12-07T01:13:24;32.40;;;22.17;;
739;SDS011;354;42.694;23.336;2022-12-07T01:15:49;29.53;;;20.13;;
739;SDS011;354;42.694;23.336;2022-12-07T01:18:14;29.77;;;21.00;;
739;SDS011;354;42.694;23.336;2022-12-07T01:20:39;29.70;;;20.93;;
739;SDS011;354;42.694;23.336;2022-12-07T01:23:05;31.57;;;21.30;;
739;SDS011;354;42.694;23.336;2022-12-07T01:25:31;31.03;;;21.23;;
739;SDS011;354;42.694;23.336;2022-12-07T01:27:56;31.47;;;20.90;;
739;SDS011;354;42.694;23.336;2022-12-07T01:30:21;29.33;;;20.37;;
739;SDS011;354;42.694;23.336;2022-12-07T01:32:47;25.30;;;19.47;;
739;SDS011;354;42.694;23.336;2022-12-07T01:35:12;28.13;;;20.00;;
739;SDS011;354;42.694;23.336;2022-12-07T01:37:38;26.57;;;19.90;;
739;SDS011;354;42.694;23.336;2022-12-07T01:40:07;29.50;;;21.47;;
739;SDS011;354;42.694;23.336;2022-12-07T01:42:33;35.03;;;23.10;;
739;SDS011;354;42.694;23.336;2022-12-07T01:47:42;32.50;;;22.53;;
739;SDS011;354;42.694;23.336;2022-12-07T01:50:08;32.70;;;22.30;;
739;SDS011;354;42.694;23.336;2022-12-07T01:52:34;35.23;;;21.73;;
739;SDS011;354;42.694;23.336;2022-12-07T01:55:09;32.37;;;21.83;;
739;SDS011;354;42.694;23.336;2022-12-07T01:57:36;35.33;;;22.67;;
739;SDS011;354;42.694;23.336;2022-12-07T02:00:04;35.63;;;22.77;;
739;SDS011;354;42.694;23.336;2022-12-07T02:02:31;35.17;;;22.43;;
739;SDS011;354;42.694;23.336;2022-12-07T02:04:57;33.20;;;23.17;;
739;SDS011;354;42.694;23.336;2022-12-07T02:07:24;34.07;;;23.13;;
739;SDS011;354;42.694;23.336;2022-12-07T02:09:50;33.90;;;23.10;;
739;SDS011;354;42.694;23.336;2022-12-07T02:12:16;33.47;;;23.87;;
739;SDS011;354;42.694;23.336;2022-12-07T02:14:41;33.83;;;23.00;;
739;SDS011;354;42.694;23.336;2022-12-07T02:17:29;35.30;;;23.47;;
739;SDS011;354;42.694;23.336;2022-12-07T02:20:00;31.50;;;22.70;;
739;SDS011;354;42.694;23.336;2022-12-07T02:22:40;33.60;;;23.40;;
739;SDS011;354;42.694;23.336;2022-12-07T02:35:40;35.17;;;23.30;;
739;SDS011;354;42.694;23.336;2022-12-07T02:37:58;34.00;;;23.00;;
739;SDS011;354;42.694;23.336;2022-12-07T02:43:04;33.27;;;23.37;;
739;SDS011;354;42.694;23.336;2022-12-07T02:45:31;33.70;;;24.80;;
739;SDS011;354;42.694;23.336;2022-12-07T02:47:59;33.40;;;21.70;;
739;SDS011;354;42.694;23.336;2022-12-07T02:50:25;30.40;;;22.13;;
739;SDS011;354;42.694;23.336;2022-12-07T02:52:51;33.37;;;23.83;;
739;SDS011;354;42.694;23.336;2022-12-07T02:55:17;38.17;;;24.83;;
739;SDS011;354;42.694;23.336;2022-12-07T03:00:23;31.97;;;22.70;;
739;SDS011;354;42.694;23.336;2022-12-07T03:13:22;32.57;;;23.97;;
739;SDS011;354;42.694;23.336;2022-12-07T03:18:31;32.17;;;22.67;;
739;SDS011;354;42.694;23.336;2022-12-07T03:20:57;36.63;;;22.93;;
739;SDS011;354;42.694;23.336;2022-12-07T03:23:25;33.40;;;23.53;;
739;SDS011;354;42.694;23.336;2022-12-07T03:25:52;32.67;;;22.83;;
739;SDS011;354;42.694;23.336;2022-12-07T03:28:20;34.27;;;24.33;;
739;SDS011;354;42.694;23.336;2022-12-07T03:33:13;34.47;;;23.80;;
739;SDS011;354;42.694;23.336;2022-12-07T03:35:42;36.20;;;23.67;;
739;SDS011;354;42.694;23.336;2022-12-07T03:38:23;37.83;;;24.27;;
739;SDS011;354;42.694;23.336;2022-12-07T03:40:51;39.27;;;24.90;;
739;SDS011;354;42.694;23.336;2022-12-07T03:43:17;35.53;;;24.13;;
739;SDS011;354;42.694;23.336;2022-12-07T03:45:44;34.80;;;23.10;;
739;SDS011;354;42.694;23.336;2022-12-07T03:48:19;38.47;;;25.87;;
739;SDS011;354;42.694;23.336;2022-12-07T03:53:12;33.73;;;24.40;;
739;SDS011;354;42.694;23.336;2022-12-07T03:55:40;38.10;;;24.93;;
739;SDS011;354;42.694;23.336;2022-12-07T03:58:09;41.30;;;25.43;;
739;SDS011;354;42.694;23.336;2022-12-07T04:00:35;38.77;;;25.80;;
739;SDS011;354;42.694;23.336;2022-12-07T04:03:01;36.67;;;22.83;;
739;SDS011;354;42.694;23.336;2022-12-07T04:05:26;38.30;;;25.17;;
739;SDS011;354;42.694;23.336;2022-12-07T04:07:51;36.87;;;23.40;;
739;SDS011;354;42.694;23.336;2022-12-07T04:10:17;35.37;;;23.03;;
739;SDS011;354;42.694;23.336;2022-12-07T04:12:42;36.17;;;24.37;;
739;SDS011;354;42.694;23.336;2022-12-07T04:15:07;36.17;;;23.57;;
739;SDS011;354;42.694;23.336;2022-12-07T04:17:33;40.80;;;24.20;;
739;SDS011;354;42.694;23.336;2022-12-07T04:19:58;33.40;;;23.27;;
739;SDS011;354;42.694;23.336;2022-12-07T04:22:23;33.50;;;23.17;;
739;SDS011;354;42.694;23.336;2022-12-07T04:24:49;36.30;;;24.93;;
739;SDS011;354;42.694;23.336;2022-12-07T04:27:14;39.90;;;26.37;;
739;SDS011;354;42.694;23.336;2022-12-07T04:29:39;36.03;;;24.07;;
739;SDS011;354;42.694;23.336;2022-12-07T04:32:05;43.53;;;25.93;;
739;SDS011;354;42.694;23.336;2022-12-07T04:34:30;37.80;;;25.70;;
739;SDS011;354;42.694;23.336;2022-12-07T04:36:55;36.37;;;25.53;;
739;SDS011;354;42.694;23.336;2022-12-07T04:39:22;39.23;;;25.77;;
739;SDS011;354;42.694;23.336;2022-12-07T04:41:47;39.07;;;24.07;;
739;SDS011;354;42.694;23.336;2022-12-07T04:44:13;39.73;;;23.73;;
739;SDS011;354;42.694;23.336;2022-12-07T04:46:39;35.17;;;25.23;;
739;SDS011;354;42.694;23.336;2022-12-07T04:49:04;38.80;;;24.80;;
739;SDS011;354;42.694;23.336;2022-12-07T04:51:30;35.67;;;25.23;;
739;SDS011;354;42.694;23.336;2022-12-07T04:53:55;36.57;;;24.97;;
739;SDS011;354;42.694;23.336;2022-12-07T04:56:21;39.27;;;25.30;;
739;SDS011;354;42.694;23.336;2022-12-07T04:58:46;40.20;;;23.67;;
739;SDS011;354;42.694;23.336;2022-12-07T05:01:13;41.30;;;25.67;;
739;SDS011;354;42.694;23.336;2022-12-07T05:03:38;37.37;;;25.53;;
739;SDS011;354;42.694;23.336;2022-12-07T05:06:03;39.20;;;27.27;;
739;SDS011;354;42.694;23.336;2022-12-07T05:08:29;38.83;;;27.37;;
739;SDS011;354;42.694;23.336;2022-12-07T05:10:54;38.83;;;24.17;;
739;SDS011;354;42.694;23.336;2022-12-07T05:13:19;38.70;;;25.50;;
739;SDS011;354;42.694;23.336;2022-12-07T05:15:46;40.40;;;25.97;;
739;SDS011;354;42.694;23.336;2022-12-07T05:18:11;35.93;;;25.77;;
739;SDS011;354;42.694;23.336;2022-12-07T05:20:40;78.60;;;48.43;;
739;SDS011;354;42.694;23.336;2022-12-07T05:23:05;43.87;;;30.53;;
739;SDS011;354;42.694;23.336;2022-12-07T05:25:30;41.93;;;28.63;;
739;SDS011;354;42.694;23.336;2022-12-07T05:27:56;43.60;;;27.60;;
739;SDS011;354;42.694;23.336;2022-12-07T05:30:21;42.60;;;26.07;;
739;SDS011;354;42.694;23.336;2022-12-07T05:32:47;40.87;;;28.80;;
739;SDS011;354;42.694;23.336;2022-12-07T05:35:12;40.00;;;27.10;;
739;SDS011;354;42.694;23.336;2022-12-07T05:37:37;44.70;;;27.60;;
739;SDS011;354;42.694;23.336;2022-12-07T05:40:03;44.17;;;28.27;;
739;SDS011;354;42.694;23.336;2022-12-07T05:42:28;35.37;;;26.17;;
739;SDS011;354;42.694;23.336;2022-12-07T05:44:54;37.23;;;25.10;;
739;SDS011;354;42.694;23.336;2022-12-07T05:47:19;41.30;;;26.17;;
739;SDS011;354;42.694;23.336;2022-12-07T05:49:44;36.73;;;25.50;;
739;SDS011;354;42.694;23.336;2022-12-07T05:52:09;43.73;;;25.97;;
739;SDS011;354;42.694;23.336;2022-12-07T05:54:35;37.50;;;24.73;;
739;SDS011;354;42.694;23.336;2022-12-07T05:57:00;38.77;;;26.23;;
739;SDS011;354;42.694;23.336;2022-12-07T05:59:25;39.73;;;27.43;;
739;SDS011;354;42.694;23.336;2022-12-07T06:01:53;37.90;;;28.90;;
739;SDS011;354;42.694;23.336;2022-12-07T06:04:19;39.53;;;25.13;;
739;SDS011;354;42.694;23.336;2022-12-07T06:06:45;39.43;;;25.50;;
739;SDS011;354;42.694;23.336;2022-12-07T06:09:10;45.47;;;27.00;;
739;SDS011;354;42.694;23.336;2022-12-07T06:11:36;43.47;;;30.50;;
739;SDS011;354;42.694;23.336;2022-12-07T06:14:20;47.07;;;33.60;;
739;SDS011;354;42.694;23.336;2022-12-07T06:16:45;43.90;;;28.73;;
739;SDS011;354;42.694;23.336;2022-12-07T06:19:10;43.70;;;28.53;;
739;SDS011;354;42.694;23.336;2022-12-07T06:21:36;35.73;;;26.30;;
739;SDS011;354;42.694;23.336;2022-12-07T06:24:01;36.10;;;26.63;;
739;SDS011;354;42.694;23.336;2022-12-07T06:26:27;44.73;;;29.93;;
739;SDS011;354;42.694;23.336;2022-12-07T06:28:52;40.67;;;27.13;;
739;SDS011;354;42.694;23.336;2022-12-07T06:31:17;41.67;;;28.30;;
739;SDS011;354;42.694;23.336;2022-12-07T06:33:42;45.07;;;29.97;;
739;SDS011;354;42.694;23.336;2022-12-07T06:36:08;40.77;;;26.50;;
739;SDS011;354;42.694;23.336;2022-12-07T06:38:33;42.03;;;27.20;;
739;SDS011;354;42.694;23.336;2022-12-07T06:40:58;43.20;;;30.80;;
739;SDS011;354;42.694;23.336;2022-12-07T06:43:24;44.07;;;29.43;;
739;SDS011;354;42.694;23.336;2022-12-07T06:45:49;46.03;;;31.97;;
739;SDS011;354;42.694;23.336;2022-12-07T06:48:14;46.43;;;28.53;;
739;SDS011;354;42.694;23.336;2022-12-07T06:50:39;41.67;;;29.47;;
739;SDS011;354;42.694;23.336;2022-12-07T06:53:05;42.83;;;29.40;;
739;SDS011;354;42.694;23.336;2022-12-07T06:55:30;46.63;;;29.23;;
739;SDS011;354;42.694;23.336;2022-12-07T06:57:55;46.40;;;30.90;;
739;SDS011;354;42.694;23.336;2022-12-07T07:00:21;47.57;;;29.27;;
739;SDS011;354;42.694;23.336;2022-12-07T07:02:46;49.10;;;30.53;;
739;SDS011;354;42.694;23.336;2022-12-07T07:05:11;44.23;;;30.40;;
739;SDS011;354;42.694;23.336;2022-12-07T07:07:36;51.90;;;35.67;;
739;SDS011;354;42.694;23.336;2022-12-07T07:10:02;46.57;;;30.37;;
739;SDS011;354;42.694;23.336;2022-12-07T07:12:27;51.33;;;33.00;;
739;SDS011;354;42.694;23.336;2022-12-07T07:14:52;47.50;;;33.23;;
739;SDS011;354;42.694;23.336;2022-12-07T07:17:18;58.60;;;35.67;;
739;SDS011;354;42.694;23.336;2022-12-07T07:19:43;52.50;;;33.10;;
739;SDS011;354;42.694;23.336;2022-12-07T07:22:08;49.60;;;33.30;;
739;SDS011;354;42.694;23.336;2022-12-07T07:24:33;49.23;;;32.77;;
739;SDS011;354;42.694;23.336;2022-12-07T07:26:59;54.50;;;35.33;;
739;SDS011;354;42.694;23.336;2022-12-07T07:29:24;46.83;;;32.70;;
739;SDS011;354;42.694;23.336;2022-12-07T07:31:49;49.23;;;32.40;;
739;SDS011;354;42.694;23.336;2022-12-07T07:34:14;49.63;;;34.87;;
739;SDS011;354;42.694;23.336;2022-12-07T07:36:40;56.07;;;38.30;;
739;SDS011;354;42.694;23.336;2022-12-07T07:39:05;63.03;;;45.00;;
739;SDS011;354;42.694;23.336;2022-12-07T07:41:30;68.23;;;48.70;;
739;SDS011;354;42.694;23.336;2022-12-07T07:43:56;67.57;;;46.90;;
739;SDS011;354;42.694;23.336;2022-12-07T07:46:21;63.20;;;46.60;;
739;SDS011;354;42.694;23.336;2022-12-07T07:48:47;60.17;;;41.30;;
739;SDS011;354;42.694;23.336;2022-12-07T07:51:12;57.30;;;37.30;;
739;SDS011;354;42.694;23.336;2022-12-07T07:53:37;50.93;;;34.23;;
739;SDS011;354;42.694;23.336;2022-12-07T07:56:03;53.00;;;35.83;;
739;SDS011;354;42.694;23.336;2022-12-07T07:58:28;45.73;;;30.90;;
739;SDS011;354;42.694;23.336;2022-12-07T08:00:53;47.90;;;32.13;;
739;SDS011;354;42.694;23.336;2022-12-07T08:03:19;52.17;;;34.60;;
739;SDS011;354;42.694;23.336;2022-12-07T08:05:44;53.47;;;32.77;;
739;SDS011;354;42.694;23.336;2022-12-07T08:08:09;47.87;;;34.03;;
739;SDS011;354;42.694;23.336;2022-12-07T08:10:35;51.33;;;36.63;;
739;SDS011;354;42.694;23.336;2022-12-07T08:13:00;51.80;;;33.70;;
739;SDS011;354;42.694;23.336;2022-12-07T08:15:39;48.23;;;32.37;;
739;SDS011;354;42.694;23.336;2022-12-07T08:18:04;47.80;;;31.43;;
739;SDS011;354;42.694;23.336;2022-12-07T08:20:30;45.87;;;31.83;;
739;SDS011;354;42.694;23.336;2022-12-07T08:22:56;46.93;;;31.47;;
739;SDS011;354;42.694;23.336;2022-12-07T08:25:21;47.70;;;31.23;;
739;SDS011;354;42.694;23.336;2022-12-07T08:27:50;38.57;;;29.90;;
739;SDS011;354;42.694;23.336;2022-12-07T08:30:15;59.37;;;32.13;;
739;SDS011;354;42.694;23.336;2022-12-07T08:32:41;44.10;;;31.80;;
739;SDS011;354;42.694;23.336;2022-12-07T08:35:06;50.40;;;30.67;;
739;SDS011;354;42.694;23.336;2022-12-07T08:37:32;45.80;;;32.50;;
739;SDS011;354;42.694;23.336;2022-12-07T08:39:58;57.23;;;37.97;;
739;SDS011;354;42.694;23.336;2022-12-07T08:42:23;53.97;;;36.03;;
739;SDS011;354;42.694;23.336;2022-12-07T08:44:52;51.37;;;36.90;;
739;SDS011;354;42.694;23.336;2022-12-07T08:47:17;53.03;;;40.17;;
739;SDS011;354;42.694;23.336;2022-12-07T08:49:43;63.47;;;41.50;;
739;SDS011;354;42.694;23.336;2022-12-07T08:52:10;59.07;;;39.93;;
739;SDS011;354;42.694;23.336;2022-12-07T08:54:36;59.73;;;39.60;;
739;SDS011;354;42.694;23.336;2022-12-07T08:57:03;55.30;;;38.20;;
739;SDS011;354;42.694;23.336;2022-12-07T08:59:29;51.67;;;35.50;;
739;SDS011;354;42.694;23.336;2022-12-07T09:01:54;64.83;;;34.27;;
739;SDS011;354;42.694;23.336;2022-12-07T09:04:19;60.10;;;37.43;;
739;SDS011;354;42.694;23.336;2022-12-07T09:06:45;58.50;;;35.00;;
739;SDS011;354;42.694;23.336;2022-12-07T09:09:10;49.70;;;33.83;;
739;SDS011;354;42.694;23.336;2022-12-07T09:11:36;49.30;;;34.57;;
739;SDS011;354;42.694;23.336;2022-12-07T09:14:02;57.07;;;37.50;;
739;SDS011;354;42.694;23.336;2022-12-07T09:16:27;57.60;;;36.83;;
739;SDS011;354;42.694;23.336;2022-12-07T09:18:53;55.33;;;35.10;;
739;SDS011;354;42.694;23.336;2022-12-07T09:21:18;51.90;;;34.57;;
739;SDS011;354;42.694;23.336;2022-12-07T09:23:43;54.10;;;34.63;;
739;SDS011;354;42.694;23.336;2022-12-07T09:26:09;50.73;;;34.30;;
739;SDS011;354;42.694;23.336;2022-12-07T09:28:34;52.67;;;33.93;;
739;SDS011;354;42.694;23.336;2022-12-07T09:30:59;50.73;;;32.40;;
739;SDS011;354;42.694;23.336;2022-12-07T09:33:25;47.53;;;31.90;;
739;SDS011;354;42.694;23.336;2022-12-07T09:35:50;46.60;;;33.27;;
739;SDS011;354;42.694;23.336;2022-12-07T09:38:16;52.30;;;33.77;;
739;SDS011;354;42.694;23.336;2022-12-07T09:40:42;51.00;;;34.43;;
739;SDS011;354;42.694;23.336;2022-12-07T09:43:15;54.90;;;35.50;;
739;SDS011;354;42.694;23.336;2022-12-07T09:45:41;54.37;;;38.23;;
739;SDS011;354;42.694;23.336;2022-12-07T09:48:09;56.30;;;36.33;;
739;SDS011;354;42.694;23.336;2022-12-07T09:50:39;51.47;;;37.03;;
739;SDS011;354;42.694;23.336;2022-12-07T09:53:08;62.90;;;41.30;;
739;SDS011;354;42.694;23.336;2022-12-07T09:55:35;56.60;;;39.20;;
739;SDS011;354;42.694;23.336;2022-12-07T09:58:01;51.73;;;36.47;;
739;SDS011;354;42.694;23.336;2022-12-07T10:00:26;60.80;;;43.37;;
739;SDS011;354;42.694;23.336;2022-12-07T10:02:55;48.70;;;35.03;;
739;SDS011;354;42.694;23.336;2022-12-07T10:05:22;55.00;;;34.97;;
739;SDS011;354;42.694;23.336;2022-12-07T10:07:48;50.73;;;35.63;;
739;SDS011;354;42.694;23.336;2022-12-07T10:10:23;54.03;;;35.00;;
739;SDS011;354;42.694;23.336;2022-12-07T10:12:53;50.83;;;35.07;;
739;SDS011;354;42.694;23.336;2022-12-07T10:15:19;52.03;;;34.83;;
739;SDS011;354;42.694;23.336;2022-12-07T10:17:49;47.30;;;32.87;;
739;SDS011;354;42.694;23.336;2022-12-07T10:23:25;59.57;;;40.47;;
739;SDS011;354;42.694;23.336;2022-12-07T10:25:30;53.50;;;38.73;;
739;SDS011;354;42.694;23.336;2022-12-07T10:28:34;54.00;;;34.17;;
739;SDS011;354;42.694;23.336;2022-12-07T10:30:56;43.27;;;33.03;;
739;SDS011;354;42.694;23.336;2022-12-07T10:33:31;51.03;;;30.23;;
739;SDS011;354;42.694;23.336;2022-12-07T10:35:57;63.80;;;42.40;;
739;SDS011;354;42.694;23.336;2022-12-07T10:38:22;47.73;;;29.33;;
739;SDS011;354;42.694;23.336;2022-12-07T10:40:49;41.07;;;29.33;;
739;SDS011;354;42.694;23.336;2022-12-07T10:43:27;37.03;;;27.43;;
739;SDS011;354;42.694;23.336;2022-12-07T10:48:23;38.03;;;26.30;;
739;SDS011;354;42.694;23.336;2022-12-07T10:50:55;37.43;;;25.67;;
739;SDS011;354;42.694;23.336;2022-12-07T11:04:13;35.00;;;22.00;;
739;SDS011;354;42.694;23.336;2022-12-07T11:06:52;34.40;;;22.07;;
739;SDS011;354;42.694;23.336;2022-12-07T11:12:02;29.50;;;21.97;;
739;SDS011;354;42.694;23.336;2022-12-07T11:14:31;30.73;;;22.20;;
739;SDS011;354;42.694;23.336;2022-12-07T11:22:09;40.93;;;27.33;;
739;SDS011;354;42.694;23.336;2022-12-07T11:37:46;83.60;;;47.40;;
739;SDS011;354;42.694;23.336;2022-12-07T11:42:46;33.33;;;24.93;;
739;SDS011;354;42.694;23.336;2022-12-07T11:45:19;34.87;;;23.97;;
739;SDS011;354;42.694;23.336;2022-12-07T11:50:33;39.07;;;25.23;;
739;SDS011;354;42.694;23.336;2022-12-07T11:58:03;34.37;;;22.20;;
739;SDS011;354;42.694;23.336;2022-12-07T12:00:29;32.73;;;22.60;;
739;SDS011;354;42.694;23.336;2022-12-07T12:03:04;33.67;;;23.20;;
739;SDS011;354;42.694;23.336;2022-12-07T12:05:34;41.80;;;27.03;;
739;SDS011;354;42.694;23.336;2022-12-07T12:08:04;30.07;;;23.67;;
739;SDS011;354;42.694;23.336;2022-12-07T12:10:40;29.67;;;22.77;;
739;SDS011;354;42.694;23.336;2022-12-07T12:26:18;31.40;;;20.60;;
739;SDS011;354;42.694;23.336;2022-12-07T12:29:00;33.87;;;22.90;;
739;SDS011;354;42.694;23.336;2022-12-07T12:33:52;28.37;;;20.53;;
739;SDS011;354;42.694;23.336;2022-12-07T12:46:59;26.67;;;20.17;;
739;SDS011;354;42.694;23.336;2022-12-07T12:51:57;27.77;;;22.60;;
739;SDS011;354;42.694;23.336;2022-12-07T12:54:24;35.47;;;25.57;;
739;SDS011;354;42.694;23.336;2022-12-07T13:01:47;28.10;;;20.90;;
739;SDS011;354;42.694;23.336;2022-12-07T13:04:26;37.53;;;24.63;;
739;SDS011;354;42.694;23.336;2022-12-07T13:06:52;30.30;;;23.37;;
739;SDS011;354;42.694;23.336;2022-12-07T13:09:22;27.47;;;21.00;;
739;SDS011;354;42.694;23.336;2022-12-07T13:11:49;34.80;;;20.87;;
739;SDS011;354;42.694;23.336;2022-12-07T13:16:59;26.63;;;19.13;;
739;SDS011;354;42.694;23.336;2022-12-07T13:25:05;25.53;;;18.37;;
739;SDS011;354;42.694;23.336;2022-12-07T13:27:32;28.70;;;19.97;;
739;SDS011;354;42.694;23.336;2022-12-07T13:29:58;24.83;;;18.43;;
739;SDS011;354;42.694;23.336;2022-12-07T13:32:24;31.67;;;19.47;;
739;SDS011;354;42.694;23.336;2022-12-07T13:34:50;30.13;;;20.73;;
739;SDS011;354;42.694;23.336;2022-12-07T13:39:47;25.60;;;20.23;;
739;SDS011;354;42.694;23.336;2022-12-07T13:44:55;29.23;;;19.53;;
739;SDS011;354;42.694;23.336;2022-12-07T13:54:49;27.87;;;20.13;;
739;SDS011;354;42.694;23.336;2022-12-07T13:57:20;25.07;;;19.07;;
739;SDS011;354;42.694;23.336;2022-12-07T13:59:45;27.37;;;19.23;;
739;SDS011;354;42.694;23.336;2022-12-07T14:02:18;31.50;;;19.57;;
739;SDS011;354;42.694;23.336;2022-12-07T14:04:43;39.40;;;20.70;;
739;SDS011;354;42.694;23.336;2022-12-07T14:07:19;30.17;;;20.07;;
739;SDS011;354;42.694;23.336;2022-12-07T14:09:53;29.33;;;20.33;;
739;SDS011;354;42.694;23.336;2022-12-07T14:12:18;29.87;;;19.87;;
739;SDS011;354;42.694;23.336;2022-12-07T14:14:46;24.70;;;18.57;;
739;SDS011;354;42.694;23.336;2022-12-07T14:17:15;26.37;;;19.47;;
739;SDS011;354;42.694;23.336;2022-12-07T14:19:45;25.70;;;17.97;;
739;SDS011;354;42.694;23.336;2022-12-07T14:25:24;28.37;;;19.63;;
739;SDS011;354;42.694;23.336;2022-12-07T14:30:18;29.73;;;21.67;;
739;SDS011;354;42.694;23.336;2022-12-07T14:32:43;30.70;;;20.70;;
739;SDS011;354;42.694;23.336;2022-12-07T14:35:13;29.93;;;21.47;;
739;SDS011;354;42.694;23.336;2022-12-07T14:37:39;35.50;;;22.17;;
739;SDS011;354;42.694;23.336;2022-12-07T14:40:05;25.33;;;20.00;;
739;SDS011;354;42.694;23.336;2022-12-07T14:42:31;29.90;;;20.50;;
739;SDS011;354;42.694;23.336;2022-12-07T14:44:56;39.00;;;26.63;;
739;SDS011;354;42.694;23.336;2022-12-07T14:47:22;29.43;;;19.67;;
739;SDS011;354;42.694;23.336;2022-12-07T14:49:47;28.83;;;18.27;;
739;SDS011;354;42.694;23.336;2022-12-07T14:52:15;28.53;;;17.57;;
739;SDS011;354;42.694;23.336;2022-12-07T14:54:41;26.93;;;19.20;;
739;SDS011;354;42.694;23.336;2022-12-07T14:57:08;29.03;;;17.77;;
739;SDS011;354;42.694;23.336;2022-12-07T14:59:33;34.23;;;21.80;;
739;SDS011;354;42.694;23.336;2022-12-07T15:01:58;31.17;;;19.97;;
739;SDS011;354;42.694;23.336;2022-12-07T15:04:23;38.20;;;21.73;;
739;SDS011;354;42.694;23.336;2022-12-07T15:06:59;36.73;;;26.93;;
739;SDS011;354;42.694;23.336;2022-12-07T15:09:24;40.80;;;25.33;;
739;SDS011;354;42.694;23.336;2022-12-07T15:11:50;31.20;;;21.03;;
739;SDS011;354;42.694;23.336;2022-12-07T15:14:15;34.57;;;21.70;;
739;SDS011;354;42.694;23.336;2022-12-07T15:16:41;33.67;;;21.63;;
739;SDS011;354;42.694;23.336;2022-12-07T15:19:13;31.80;;;20.90;;
739;SDS011;354;42.694;23.336;2022-12-07T15:21:39;31.07;;;20.47;;
739;SDS011;354;42.694;23.336;2022-12-07T15:24:04;37.80;;;24.30;;
739;SDS011;354;42.694;23.336;2022-12-07T15:26:30;36.77;;;24.07;;
739;SDS011;354;42.694;23.336;2022-12-07T15:28:56;42.03;;;26.20;;
739;SDS011;354;42.694;23.336;2022-12-07T15:31:21;50.23;;;36.10;;
739;SDS011;354;42.694;23.336;2022-12-07T15:33:46;29.73;;;21.37;;
739;SDS011;354;42.694;23.336;2022-12-07T15:36:18;28.50;;;21.23;;
739;SDS011;354;42.694;23.336;2022-12-07T15:38:43;67.27;;;44.40;;
739;SDS011;354;42.694;23.336;2022-12-07T15:41:09;74.20;;;49.27;;
739;SDS011;354;42.694;23.336;2022-12-07T15:43:35;74.63;;;52.17;;
739;SDS011;354;42.694;23.336;2022-12-07T15:46:20;41.80;;;28.97;;
739;SDS011;354;42.694;23.336;2022-12-07T15:48:46;34.57;;;25.67;;
739;SDS011;354;42.694;23.336;2022-12-07T15:51:11;42.17;;;23.20;;
739;SDS011;354;42.694;23.336;2022-12-07T15:53:36;32.67;;;24.17;;
739;SDS011;354;42.694;23.336;2022-12-07T15:56:05;42.67;;;24.87;;
739;SDS011;354;42.694;23.336;2022-12-07T15:58:31;44.10;;;27.63;;
739;SDS011;354;42.694;23.336;2022-12-07T16:00:56;35.47;;;24.47;;
739;SDS011;354;42.694;23.336;2022-12-07T16:03:21;39.20;;;24.43;;
739;SDS011;354;42.694;23.336;2022-12-07T16:05:50;44.77;;;29.80;;
739;SDS011;354;42.694;23.336;2022-12-07T16:08:15;45.67;;;28.50;;
739;SDS011;354;42.694;23.336;2022-12-07T16:10:41;50.57;;;28.63;;
739;SDS011;354;42.694;23.336;2022-12-07T16:13:08;45.90;;;28.03;;
739;SDS011;354;42.694;23.336;2022-12-07T16:15:37;49.87;;;30.97;;
739;SDS011;354;42.694;23.336;2022-12-07T16:18:02;42.40;;;26.37;;
739;SDS011;354;42.694;23.336;2022-12-07T16:20:27;45.10;;;27.03;;
739;SDS011;354;42.694;23.336;2022-12-07T16:22:52;38.60;;;27.93;;
739;SDS011;354;42.694;23.336;2022-12-07T16:25:18;45.03;;;29.03;;
739;SDS011;354;42.694;23.336;2022-12-07T16:27:43;42.97;;;27.57;;
739;SDS011;354;42.694;23.336;2022-12-07T16:30:08;43.33;;;26.70;;
739;SDS011;354;42.694;23.336;2022-12-07T16:32:34;83.13;;;51.57;;
739;SDS011;354;42.694;23.336;2022-12-07T16:34:59;75.70;;;49.20;;
739;SDS011;354;42.694;23.336;2022-12-07T16:37:24;69.47;;;41.43;;
739;SDS011;354;42.694;23.336;2022-12-07T16:39:49;71.53;;;46.77;;
739;SDS011;354;42.694;23.336;2022-12-07T16:42:15;76.50;;;49.37;;
739;SDS011;354;42.694;23.336;2022-12-07T16:44:40;68.27;;;41.67;;
739;SDS011;354;42.694;23.336;2022-12-07T16:47:06;68.77;;;43.00;;
739;SDS011;354;42.694;23.336;2022-12-07T16:49:31;61.23;;;39.73;;
739;SDS011;354;42.694;23.336;2022-12-07T16:51:57;55.03;;;36.60;;
739;SDS011;354;42.694;23.336;2022-12-07T16:54:22;58.60;;;41.40;;
739;SDS011;354;42.694;23.336;2022-12-07T16:56:47;63.63;;;37.40;;
739;SDS011;354;42.694;23.336;2022-12-07T16:59:12;61.73;;;37.83;;
739;SDS011;354;42.694;23.336;2022-12-07T17:01:38;55.00;;;36.03;;
739;SDS011;354;42.694;23.336;2022-12-07T17:04:03;59.80;;;39.07;;
739;SDS011;354;42.694;23.336;2022-12-07T17:06:29;46.10;;;31.50;;
739;SDS011;354;42.694;23.336;2022-12-07T17:08:56;49.90;;;33.77;;
739;SDS011;354;42.694;23.336;2022-12-07T17:11:26;53.33;;;34.03;;
739;SDS011;354;42.694;23.336;2022-12-07T17:13:51;47.87;;;33.10;;
739;SDS011;354;42.694;23.336;2022-12-07T17:16:35;104.73;;;69.30;;
739;SDS011;354;42.694;23.336;2022-12-07T17:19:04;61.17;;;39.93;;
739;SDS011;354;42.694;23.336;2022-12-07T17:21:30;49.30;;;33.70;;
739;SDS011;354;42.694;23.336;2022-12-07T17:23:57;52.03;;;34.93;;
739;SDS011;354;42.694;23.336;2022-12-07T17:26:23;55.50;;;36.53;;